DONNÉES MÉTÉO

HIER
Time Temp. Dewp. Hum. Directi La vitess Wind gust Bar. 1h Prec. 24h Prec.
00:06 4.6 3.6 93 0 0 979.1 0.0000 0.0000
00:16 4.6 3.6 93 0 0 978.9 0.0000 0.0000
00:26 4.6 3.6 93 0 0 978.7 0.0000 0.0000
00:36 4.6 3.6 93 0 0 978.3 0.0000 0.0000
00:46 4.6 3.6 93 0 0 978 0.0000 0.0000
00:57 4.6 3.6 93 0 0 977.7 0.0000 0.0000
01:07 4.6 3.6 93 0 0 977.4 0.0000 0.0000
01:21 4.5 3.5 93 0 0 976.8 0.1010 0.1000
01:32 4.5 3.5 93 0 0 976.4 0.1010 0.1000
01:42 4.4 3.4 93 0 0 976.3 0.1010 0.1000
01:52 4.4 3.5 94 0 0 976.2 0.1010 0.1000
02:02 4.4 3.5 94 0 0 975.9 0.1010 0.1000
02:13 4.5 3.6 94 0 0 975.7 0.1010 0.1000
02:22 4.6 3.7 94 0 0 975.4 0.0000 0.1000
02:32 4.7 4 95 0 0 975.1 0.0000 0.1000
02:43 4.7 4 95 0 0 974.9 0.0000 0.1000
02:53 4.8 4.1 95 0 0 974.7 0.0000 0.1000
03:12 4.9 4.2 95 0 0 974.1 0.0000 0.1000
03:18 5 4.3 95 0 0 974.1 0.3030 0.4000
03:33 5.1 4.5 96 0 0 973.7 0.4040 0.5000
03:42 5.1 4.5 96 0 0 973.4 0.4040 0.5000
03:53 5.2 4.6 96 0 0 973 0.4040 0.5000
04:03 5.3 4.7 96 0 0 972.7 0.5050 0.6000
04:13 5.4 4.8 96 0 0 972.3 0.7070 0.8000
04:23 5.4 4.8 96 0 0 972.1 0.6060 1.1000
04:34 5.5 4.9 96 0 0 971.8 0.7070 1.2000
04:43 5.6 5 96 0 0 971.6 1.0100 1.5000
04:53 5.6 5 96 0 0 971.1 1.4140 1.9000
05:04 5.6 5.2 97 0 0 970.8 1.2120 2.0000
05:19 5.7 5.3 97 0 0 970.4 1.2120 2.3000
05:29 5.7 5.3 97 0 0 970.2 1.2120 2.4000
05:39 5.7 5.3 97 0 0 970.1 1.1110 2.6000
05:49 5.8 5.4 97 0 0 970 0.8080 2.7000
05:59 5.8 5.4 97 0 0 969.9 0.8080 2.8000
06:09 5.8 5.4 97 0 0 970 0.8080 3.0000
06:20 5.9 5.5 97 0 0 970 0.6060 3.0000
06:29 5.9 5.5 97 0 0 969.9 0.6060 3.1000
06:39 6 5.6 97 0 0 970 0.5050 3.1000
06:50 6.1 5.7 97 0 0 970 0.3030 3.1000
07:00 6.1 5.7 97 0 0 970.1 0.2020 3.1000
07:10 6.1 5.7 97 0 0 970.1 0.1010 3.1000
07:20 6.2 5.8 97 0 0 970.2 0.0000 3.1000
07:35 6.2 5.8 97 0 0 970.4 0.0000 3.1000
07:45 6.2 5.8 97 0 0 970.4 0.0000 3.1000
07:55 6.3 5.9 97 0 0 970.5 0.0000 3.1000
08:06 6.3 6 98 0 0 970.7 0.1010 3.2000
08:25 6.3 5.9 97 0 0 971.1 0.1010 3.2000
08:36 6.3 5.9 97 0 0 971.1 0.1010 3.2000
08:56 6.2 5.8 97 0 0 971.4 0.0000 3.2000
09:06 6.2 5.8 97 0 0 971.5 0.0000 3.2000
09:16 6.1 5.7 97 0 0 971.5 0.0000 3.2000
09:26 6.2 5.8 97 0 0 971.7 0.1010 3.3000
09:36 6.2 5.8 97 0 0 971.9 0.1010 3.3000
09:46 6.3 5.9 97 0 0 972.1 0.2020 3.4000
09:57 6.3 5.9 97 0 0 972.4 0.2020 3.4000
10:11 6.4 6 97 0 0 972.8 0.3030 3.5000
10:21 6.5 6.2 98 0 0 973.1 0.3030 3.5000
10:32 6.7 6.4 98 0 0 973.4 0.2020 3.5000
10:42 6.9 6.6 98 0 0 973.8 0.1010 3.5000
10:52 7 6.6 97 0 0 974.2 0.1010 3.5000
11:02 7.1 6.7 97 0 0 974.6 0.2020 3.6000
11:12 7.1 6.7 97 0 0 974.9 0.3030 3.8000
11:22 7.1 6.5 96 0 0 975.3 0.5050 4.0000
11:32 7 6.4 96 0 0 975.6 0.8080 4.3000
11:43 7 6.4 96 0 0 976 1.2120 4.7000
11:52 6.9 6.3 96 0 0 976.3 1.4140 4.9000
12:02 6.9 6.3 96 0 0 976.7 1.6160 5.3000
12:13 6.9 6.3 96 0 0 977 1.7170 5.6000
12:23 6.9 6.3 96 0 0 977.3 1.7170 5.8000
12:33 6.9 6.3 96 0 0 977.5 1.6160 6.0000
12:42 7 6.4 96 0 0 977.8 1.3130 6.3000
12:58 7.1 6.5 96 0 0 978.3 1.4140 6.7000
13:08 7.2 6.6 96 0 0 978.6 1.1110 6.7000
13:18 7.4 6.8 96 0 0 978.9 0.9090 6.7000
13:29 7.5 6.9 96 0 0 979.2 0.8080 6.8000
13:38 7.6 6.9 95 0 0 979.5 0.5050 6.8000
13:48 7.7 7 95 0 0 979.8 0.2020 6.8000
13:59 7.8 6.9 94 0 0 980.1 0.1010 6.8000
14:09 7.9 7 94 0 0 980.3 0.1010 6.8000
14:19 8 6.9 93 0 0 980.5 0.1010 6.8000
14:28 8.1 6.9 92 0 0 980.8 0.0000 6.8000
14:39 8.1 6.9 92 0 0 981 0.0000 6.8000
14:54 8.1 6.7 91 0 0 981.5 0.0000 6.8000
15:04 8.1 6.6 90 0 0 981.7 0.0000 6.8000
15:14 8.1 6.6 90 0 0 982.1 0.0000 6.8000
15:24 8.1 6.6 90 0 0 982.4 0.0000 6.8000
15:34 8.1 6.4 89 0 0 982.8 0.0000 6.8000
15:44 8 6.3 89 0 0 983 0.0000 6.8000
15:55 8 6.3 89 0 0 983.2 0.0000 6.8000
16:05 8 6.3 89 0 0 983.4 0.0000 6.8000
16:19 7.9 6 88 0 0 983.7 0.0000 6.8000
16:30 7.8 5.9 88 0 0 984 0.0000 6.8000
16:40 7.7 5.8 88 0 0 984.3 0.0000 6.8000
16:55 7.6 5.9 89 0 0 984.5 0.0000 6.8000
17:05 7.6 5.9 89 0 0 984.6 0.1010 6.9000
17:15 7.5 5.8 89 0 0 984.7 0.1010 6.9000
17:25 7.4 5.7 89 0 0 984.9 0.1010 6.9000
17:36 7.4 5.7 89 0 0 985 0.1010 6.9000
17:46 7.3 5.6 89 0 0 985.2 0.1010 6.9000
17:55 7.3 5.4 88 0 0 985.4 0.1010 6.9000
18:05 7.3 5.4 88 0 0 985.6 0.0000 6.9000
18:16 7.3 5.3 87 0 0 985.7 0.0000 6.9000
18:26 7.3 5.3 87 0 0 985.8 0.0000 6.9000
18:36 7.3 5.3 87 0 0 985.9 0.0000 6.9000
18:46 7.3 5.1 86 0 0 985.9 0.0000 6.9000
18:56 7.3 5.1 86 0 0 986 0.0000 6.9000
19:06 7.2 5 86 0 0 986 0.0000 6.9000
19:16 7.2 4.9 85 0 0 986.2 0.0000 6.9000
19:27 7.3 4.8 84 0 0 986.1 0.1010 7.0000
19:37 7.3 4.6 83 0 0 986.1 0.1010 7.0000
19:46 7.3 4.4 82 0 0 986.1 0.1010 7.0000
19:57 7.3 4.4 82 0 0 985.9 0.1010 7.0000
20:07 7.2 4.3 82 0 0 985.8 0.1010 7.0000
20:17 7 4.1 82 0 0 985.8 0.0000 7.0000
20:27 6.8 3.9 82 0 0 985.9 0.0000 7.0000
20:38 6.5 3.7 82 0 0 986 0.0000 7.0000
20:47 6.3 3.6 83 0 0 986 0.0000 7.0000
20:57 6.1 3.6 84 0 0 986.1 0.0000 7.0000
21:08 5.9 3.4 84 0 0 985.9 0.0000 7.0000
21:18 5.7 3.4 85 0 0 985.8 0.0000 7.0000
21:28 5.7 3.5 86 0 0 985.8 0.0000 7.0000
21:37 5.6 3.4 86 0 0 985.6 0.0000 7.0000
21:48 5.6 3.6 87 0 0 985.3 0.0000 7.0000
21:58 5.6 3.6 87 0 0 985.1 0.0000 7.0000
22:08 5.6 3.6 87 0 0 984.9 0.0000 7.0000
22:18 5.6 3.6 87 0 0 984.6 0.0000 7.0000
22:28 5.5 3.5 87 0 0 984.8 0.0000 7.0000
22:38 5.5 3.5 87 0 0 984.8 0.0000 7.0000
22:48 5.5 3.5 87 0 0 984.6 0.0000 7.0000
22:59 5.4 3.4 87 0 0 984.5 0.0000 7.0000
23:09 5.4 3.6 88 0 0 984.4 0.0000 7.0000
23:19 5.5 3.7 88 0 0 984.4 0.0000 7.0000
23:28 5.5 3.7 88 0 0 984.4 0.0000 7.0000
23:39 5.6 3.8 88 0 0 984.3 0.0000 7.0000
23:49 5.6 3.8 88 0 0 984.3 0.0000 7.0000

SATISTIQUES DU JOUR

2019-12-13
TEMPÉRATURE
MOYEN
6.3
MAXI
8.1
14:28
MINI
4.4
01:42
PRESSION
MOYEN
978.5
MAXI
986.2
19:16
MINI
969.9
05:59
POINT DE ROSÉE
MOYEN
5.2
MAXI
7.0
13:48
MINI
3.4
01:42
HUMIDITÉ
MOYEN
92
MAXI
98
08:06
MINI
82
19:46
LA VITESSE DU VENT
MOYEN
0.0
MAXI
0.0
23:29
WIND GUST
MOYEN
0.0
MAXI
0.0
23:29
DIRECTION DU VENT
PREVAILING
%
PRÉCIPITATIONS
RAIN HOUR
1.7
RAIN DAY
7.0
TEMPÉRATURE (°C)
MINI
4.4
MAXI
8.1
MOYEN
6.3
PRESSION (hpa)
MINI
969.9
MAXI
986.2
MOYEN
978.5
DEVICE